sensor_id;sensor_type;location;lat;lon;timestamp;temperature;humidity
13336;DHT22;6737;51.480;11.962;2023-04-01T00:01:07;9.40;99.90
13336;DHT22;6737;51.480;11.962;2023-04-01T00:03:34;9.40;99.90
13336;DHT22;6737;51.480;11.962;2023-04-01T00:06:00;9.40;99.90
13336;DHT22;6737;51.480;11.962;2023-04-01T00:08:26;9.40;99.90
13336;DHT22;6737;51.480;11.962;2023-04-01T00:10:53;9.40;99.90
13336;DHT22;6737;51.480;11.962;2023-04-01T00:13:19;9.40;99.90
13336;DHT22;6737;51.480;11.962;2023-04-01T00:15:45;9.40;99.90
13336;DHT22;6737;51.480;11.962;2023-04-01T00:18:12;9.30;99.90
13336;DHT22;6737;51.480;11.962;2023-04-01T00:20:39;9.40;99.90
13336;DHT22;6737;51.480;11.962;2023-04-01T00:23:08;9.40;99.90
13336;DHT22;6737;51.480;11.962;2023-04-01T00:25:33;9.30;99.90
13336;DHT22;6737;51.480;11.962;2023-04-01T00:27:59;9.40;99.90
13336;DHT22;6737;51.480;11.962;2023-04-01T00:30:25;9.40;99.90
13336;DHT22;6737;51.480;11.962;2023-04-01T00:32:52;9.30;99.90
13336;DHT22;6737;51.480;11.962;2023-04-01T00:35:18;9.30;99.90
13336;DHT22;6737;51.480;11.962;2023-04-01T00:37:44;9.30;99.90
13336;DHT22;6737;51.480;11.962;2023-04-01T00:40:26;9.30;99.90
13336;DHT22;6737;51.480;11.962;2023-04-01T00:42:52;9.30;99.90
13336;DHT22;6737;51.480;11.962;2023-04-01T00:45:37;9.30;99.90
13336;DHT22;6737;51.480;11.962;2023-04-01T00:48:10;9.30;99.90
13336;DHT22;6737;51.480;11.962;2023-04-01T00:50:37;9.30;99.90
13336;DHT22;6737;51.480;11.962;2023-04-01T00:53:05;9.40;99.90
13336;DHT22;6737;51.480;11.962;2023-04-01T00:55:35;9.30;99.90
13336;DHT22;6737;51.480;11.962;2023-04-01T00:58:05;9.30;99.90
13336;DHT22;6737;51.480;11.962;2023-04-01T01:00:33;9.30;99.90
13336;DHT22;6737;51.480;11.962;2023-04-01T01:02:59;9.30;99.90
13336;DHT22;6737;51.480;11.962;2023-04-01T01:05:54;9.30;99.90
13336;DHT22;6737;51.480;11.962;2023-04-01T01:10:52;9.30;99.90
13336;DHT22;6737;51.480;11.962;2023-04-01T01:16:18;9.20;99.90
13336;DHT22;6737;51.480;11.962;2023-04-01T01:18:57;9.20;99.90
13336;DHT22;6737;51.480;11.962;2023-04-01T01:22:07;9.20;99.90
13336;DHT22;6737;51.480;11.962;2023-04-01T01:27:15;9.10;99.90
13336;DHT22;6737;51.480;11.962;2023-04-01T01:35:22;9.10;99.90
13336;DHT22;6737;51.480;11.962;2023-04-01T01:38:11;9.20;99.90
13336;DHT22;6737;51.480;11.962;2023-04-01T01:40:42;9.20;99.90
13336;DHT22;6737;51.480;11.962;2023-04-01T01:43:11;9.20;99.90
13336;DHT22;6737;51.480;11.962;2023-04-01T01:45:43;9.20;99.90
13336;DHT22;6737;51.480;11.962;2023-04-01T01:48:10;9.20;99.90
13336;DHT22;6737;51.480;11.962;2023-04-01T01:50:37;9.20;99.90
13336;DHT22;6737;51.480;11.962;2023-04-01T01:53:10;9.20;99.90
13336;DHT22;6737;51.480;11.962;2023-04-01T01:55:42;9.20;99.90
13336;DHT22;6737;51.480;11.962;2023-04-01T01:58:28;9.20;99.90
13336;DHT22;6737;51.480;11.962;2023-04-01T02:00:59;9.20;99.90
13336;DHT22;6737;51.480;11.962;2023-04-01T02:03:29;9.20;99.90
13336;DHT22;6737;51.480;11.962;2023-04-01T02:05:58;9.30;99.90
13336;DHT22;6737;51.480;11.962;2023-04-01T02:08:42;9.20;99.90
13336;DHT22;6737;51.480;11.962;2023-04-01T02:11:12;9.20;99.90
13336;DHT22;6737;51.480;11.962;2023-04-01T02:13:45;9.20;99.90
13336;DHT22;6737;51.480;11.962;2023-04-01T02:16:26;9.20;99.90
13336;DHT22;6737;51.480;11.962;2023-04-01T02:18:55;9.20;99.90
13336;DHT22;6737;51.480;11.962;2023-04-01T02:21:25;9.20;99.90
13336;DHT22;6737;51.480;11.962;2023-04-01T02:23:54;9.20;99.90
13336;DHT22;6737;51.480;11.962;2023-04-01T02:26:22;9.20;99.90
13336;DHT22;6737;51.480;11.962;2023-04-01T02:28:50;9.20;99.90
13336;DHT22;6737;51.480;11.962;2023-04-01T02:31:16;9.20;99.90
13336;DHT22;6737;51.480;11.962;2023-04-01T02:33:42;9.20;99.90
13336;DHT22;6737;51.480;11.962;2023-04-01T02:36:12;9.30;99.90
13336;DHT22;6737;51.480;11.962;2023-04-01T02:38:39;9.30;99.90
13336;DHT22;6737;51.480;11.962;2023-04-01T02:41:05;9.20;99.90
13336;DHT22;6737;51.480;11.962;2023-04-01T02:43:32;9.30;99.90
13336;DHT22;6737;51.480;11.962;2023-04-01T02:45:57;9.20;99.90
13336;DHT22;6737;51.480;11.962;2023-04-01T02:48:23;9.30;99.90
13336;DHT22;6737;51.480;11.962;2023-04-01T02:50:50;9.30;99.90
13336;DHT22;6737;51.480;11.962;2023-04-01T02:53:16;9.20;99.90
13336;DHT22;6737;51.480;11.962;2023-04-01T02:55:42;9.30;99.90
13336;DHT22;6737;51.480;11.962;2023-04-01T02:58:08;9.30;99.90
13336;DHT22;6737;51.480;11.962;2023-04-01T03:00:34;9.30;99.90
13336;DHT22;6737;51.480;11.962;2023-04-01T03:03:00;9.30;99.90
13336;DHT22;6737;51.480;11.962;2023-04-01T03:05:26;9.30;99.90
13336;DHT22;6737;51.480;11.962;2023-04-01T03:07:51;9.30;99.90
13336;DHT22;6737;51.480;11.962;2023-04-01T03:10:17;9.40;99.90
13336;DHT22;6737;51.480;11.962;2023-04-01T03:12:43;9.40;99.90
13336;DHT22;6737;51.480;11.962;2023-04-01T03:15:11;9.30;99.90
13336;DHT22;6737;51.480;11.962;2023-04-01T03:17:38;9.30;99.90
13336;DHT22;6737;51.480;11.962;2023-04-01T03:20:04;9.30;99.90
13336;DHT22;6737;51.480;11.962;2023-04-01T03:22:31;9.30;99.90
13336;DHT22;6737;51.480;11.962;2023-04-01T03:24:56;9.30;99.90
13336;DHT22;6737;51.480;11.962;2023-04-01T03:27:22;9.30;99.90
13336;DHT22;6737;51.480;11.962;2023-04-01T03:29:48;9.20;99.90
13336;DHT22;6737;51.480;11.962;2023-04-01T03:32:14;9.20;99.90
13336;DHT22;6737;51.480;11.962;2023-04-01T03:34:40;9.20;99.90
13336;DHT22;6737;51.480;11.962;2023-04-01T03:37:06;9.20;99.90
13336;DHT22;6737;51.480;11.962;2023-04-01T03:39:32;9.20;99.90
13336;DHT22;6737;51.480;11.962;2023-04-01T03:41:57;9.20;99.90
13336;DHT22;6737;51.480;11.962;2023-04-01T03:44:24;9.20;99.90
13336;DHT22;6737;51.480;11.962;2023-04-01T03:46:50;9.20;99.90
13336;DHT22;6737;51.480;11.962;2023-04-01T03:49:16;9.20;99.90
13336;DHT22;6737;51.480;11.962;2023-04-01T03:51:42;9.20;99.90
13336;DHT22;6737;51.480;11.962;2023-04-01T03:54:10;9.20;99.90
13336;DHT22;6737;51.480;11.962;2023-04-01T03:56:36;9.20;99.90
13336;DHT22;6737;51.480;11.962;2023-04-01T03:59:04;9.20;99.90
13336;DHT22;6737;51.480;11.962;2023-04-01T04:01:31;9.20;99.90
13336;DHT22;6737;51.480;11.962;2023-04-01T04:03:57;9.20;99.90
13336;DHT22;6737;51.480;11.962;2023-04-01T04:06:27;9.20;99.90
13336;DHT22;6737;51.480;11.962;2023-04-01T04:08:53;9.10;99.90
13336;DHT22;6737;51.480;11.962;2023-04-01T04:11:20;9.20;99.90
13336;DHT22;6737;51.480;11.962;2023-04-01T04:13:47;9.20;99.90
13336;DHT22;6737;51.480;11.962;2023-04-01T04:16:15;9.20;99.90
13336;DHT22;6737;51.480;11.962;2023-04-01T04:18:41;9.20;99.90
13336;DHT22;6737;51.480;11.962;2023-04-01T04:21:07;9.20;99.90
13336;DHT22;6737;51.480;11.962;2023-04-01T04:23:33;9.20;99.90
13336;DHT22;6737;51.480;11.962;2023-04-01T04:26:01;9.20;99.90
13336;DHT22;6737;51.480;11.962;2023-04-01T04:28:28;9.20;99.90
13336;DHT22;6737;51.480;11.962;2023-04-01T04:30:54;9.20;99.90
13336;DHT22;6737;51.480;11.962;2023-04-01T04:33:22;9.20;99.90
13336;DHT22;6737;51.480;11.962;2023-04-01T04:35:48;9.20;99.90
13336;DHT22;6737;51.480;11.962;2023-04-01T04:38:14;9.10;99.90
13336;DHT22;6737;51.480;11.962;2023-04-01T04:40:42;9.20;99.90
13336;DHT22;6737;51.480;11.962;2023-04-01T04:43:10;9.10;99.90
13336;DHT22;6737;51.480;11.962;2023-04-01T04:45:37;9.10;99.90
13336;DHT22;6737;51.480;11.962;2023-04-01T04:48:03;9.10;99.90
13336;DHT22;6737;51.480;11.962;2023-04-01T04:50:29;9.10;99.90
13336;DHT22;6737;51.480;11.962;2023-04-01T04:52:54;9.10;99.90
13336;DHT22;6737;51.480;11.962;2023-04-01T04:55:20;9.10;99.90
13336;DHT22;6737;51.480;11.962;2023-04-01T04:57:46;9.10;99.90
13336;DHT22;6737;51.480;11.962;2023-04-01T05:00:12;9.10;99.90
13336;DHT22;6737;51.480;11.962;2023-04-01T05:02:38;9.10;99.90
13336;DHT22;6737;51.480;11.962;2023-04-01T05:05:04;9.10;99.90
13336;DHT22;6737;51.480;11.962;2023-04-01T05:07:30;9.10;99.90
13336;DHT22;6737;51.480;11.962;2023-04-01T05:09:56;9.10;99.90
13336;DHT22;6737;51.480;11.962;2023-04-01T05:12:22;9.10;99.90
13336;DHT22;6737;51.480;11.962;2023-04-01T05:14:47;9.10;99.90
13336;DHT22;6737;51.480;11.962;2023-04-01T05:17:13;9.10;99.90
13336;DHT22;6737;51.480;11.962;2023-04-01T05:19:39;9.10;99.90
13336;DHT22;6737;51.480;11.962;2023-04-01T05:22:05;9.10;99.90
13336;DHT22;6737;51.480;11.962;2023-04-01T05:24:32;9.10;99.90
13336;DHT22;6737;51.480;11.962;2023-04-01T05:26:58;9.20;99.90
13336;DHT22;6737;51.480;11.962;2023-04-01T05:29:26;9.20;99.90
13336;DHT22;6737;51.480;11.962;2023-04-01T05:31:52;9.20;99.90
13336;DHT22;6737;51.480;11.962;2023-04-01T05:34:18;9.10;99.90
13336;DHT22;6737;51.480;11.962;2023-04-01T05:36:44;9.20;99.90
13336;DHT22;6737;51.480;11.962;2023-04-01T05:39:10;9.20;99.90
13336;DHT22;6737;51.480;11.962;2023-04-01T05:41:36;9.20;99.90
13336;DHT22;6737;51.480;11.962;2023-04-01T05:44:03;9.20;99.90
13336;DHT22;6737;51.480;11.962;2023-04-01T05:46:29;9.20;99.90
13336;DHT22;6737;51.480;11.962;2023-04-01T05:48:55;9.20;99.90
13336;DHT22;6737;51.480;11.962;2023-04-01T05:51:20;9.30;99.90
13336;DHT22;6737;51.480;11.962;2023-04-01T05:53:46;9.30;99.90
13336;DHT22;6737;51.480;11.962;2023-04-01T05:56:12;9.30;99.90
13336;DHT22;6737;51.480;11.962;2023-04-01T05:58:39;9.30;99.90
13336;DHT22;6737;51.480;11.962;2023-04-01T06:01:10;9.30;99.90
13336;DHT22;6737;51.480;11.962;2023-04-01T06:03:36;9.40;99.90
13336;DHT22;6737;51.480;11.962;2023-04-01T06:06:02;9.40;99.90
13336;DHT22;6737;51.480;11.962;2023-04-01T06:08:31;9.40;99.90
13336;DHT22;6737;51.480;11.962;2023-04-01T06:11:21;9.40;99.90
13336;DHT22;6737;51.480;11.962;2023-04-01T06:37:07;9.90;99.90
13336;DHT22;6737;51.480;11.962;2023-04-01T06:39:47;10.00;99.90
13336;DHT22;6737;51.480;11.962;2023-04-01T06:42:51;10.00;99.90
13336;DHT22;6737;51.480;11.962;2023-04-01T06:56:09;10.10;99.90
13336;DHT22;6737;51.480;11.962;2023-04-01T06:58:41;10.10;99.90
13336;DHT22;6737;51.480;11.962;2023-04-01T07:01:12;10.10;99.90
13336;DHT22;6737;51.480;11.962;2023-04-01T07:03:52;10.10;99.90
13336;DHT22;6737;51.480;11.962;2023-04-01T07:08:54;10.10;99.90
13336;DHT22;6737;51.480;11.962;2023-04-01T07:11:29;10.20;99.90
13336;DHT22;6737;51.480;11.962;2023-04-01T07:17:11;10.20;99.90
13336;DHT22;6737;51.480;11.962;2023-04-01T07:19:52;10.20;99.90
13336;DHT22;6737;51.480;11.962;2023-04-01T07:24:48;10.30;99.90
13336;DHT22;6737;51.480;11.962;2023-04-01T07:27:14;10.30;99.90
13336;DHT22;6737;51.480;11.962;2023-04-01T07:29:40;10.30;99.90
13336;DHT22;6737;51.480;11.962;2023-04-01T07:32:28;10.40;99.90
13336;DHT22;6737;51.480;11.962;2023-04-01T07:35:09;10.40;99.90
13336;DHT22;6737;51.480;11.962;2023-04-01T07:38:14;10.50;99.90
13336;DHT22;6737;51.480;11.962;2023-04-01T07:41:12;10.50;99.90
13336;DHT22;6737;51.480;11.962;2023-04-01T07:49:17;10.60;99.90
13336;DHT22;6737;51.480;11.962;2023-04-01T07:52:08;10.60;99.90
13336;DHT22;6737;51.480;11.962;2023-04-01T08:00:20;10.70;99.90
13336;DHT22;6737;51.480;11.962;2023-04-01T08:05:26;10.80;99.90
13336;DHT22;6737;51.480;11.962;2023-04-01T08:08:48;10.90;99.90
13336;DHT22;6737;51.480;11.962;2023-04-01T08:13:43;11.00;99.90
13336;DHT22;6737;51.480;11.962;2023-04-01T08:16:45;11.00;99.90
13336;DHT22;6737;51.480;11.962;2023-04-01T08:19:41;11.00;99.90
13336;DHT22;6737;51.480;11.962;2023-04-01T08:22:33;11.00;99.90
13336;DHT22;6737;51.480;11.962;2023-04-01T08:25:00;11.10;99.90
13336;DHT22;6737;51.480;11.962;2023-04-01T08:27:35;11.00;99.90
13336;DHT22;6737;51.480;11.962;2023-04-01T08:30:17;10.90;99.90
13336;DHT22;6737;51.480;11.962;2023-04-01T08:35:34;11.00;99.90
13336;DHT22;6737;51.480;11.962;2023-04-01T08:38:13;11.00;99.90
13336;DHT22;6737;51.480;11.962;2023-04-01T08:41:01;11.10;99.90
13336;DHT22;6737;51.480;11.962;2023-04-01T09:20:41;11.70;99.90
13336;DHT22;6737;51.480;11.962;2023-04-01T09:23:22;11.80;99.90
13336;DHT22;6737;51.480;11.962;2023-04-01T09:25:59;11.90;99.90
13336;DHT22;6737;51.480;11.962;2023-04-01T10:08:33;11.90;99.90
13336;DHT22;6737;51.480;11.962;2023-04-01T10:11:15;11.90;99.90
13336;DHT22;6737;51.480;11.962;2023-04-01T10:17:26;12.00;99.90
13336;DHT22;6737;51.480;11.962;2023-04-01T10:22:58;11.90;99.90
13336;DHT22;6737;51.480;11.962;2023-04-01T10:57:10;12.30;99.90
13336;DHT22;6737;51.480;11.962;2023-04-01T11:04:59;12.00;99.90
13336;DHT22;6737;51.480;11.962;2023-04-01T11:10:54;11.90;99.90
13336;DHT22;6737;51.480;11.962;2023-04-01T11:22:27;12.10;99.90
13336;DHT22;6737;51.480;11.962;2023-04-01T11:28:06;12.40;99.90
13336;DHT22;6737;51.480;11.962;2023-04-01T11:30:56;12.50;99.90
13336;DHT22;6737;51.480;11.962;2023-04-01T11:33:31;12.60;99.90
13336;DHT22;6737;51.480;11.962;2023-04-01T11:41:38;12.80;99.90
13336;DHT22;6737;51.480;11.962;2023-04-01T11:58:11;12.90;99.90
13336;DHT22;6737;51.480;11.962;2023-04-01T12:03:51;12.90;99.90
13336;DHT22;6737;51.480;11.962;2023-04-01T12:06:58;12.90;99.90
13336;DHT22;6737;51.480;11.962;2023-04-01T12:17:46;13.10;99.90
13336;DHT22;6737;51.480;11.962;2023-04-01T12:28:36;12.70;99.90
13336;DHT22;6737;51.480;11.962;2023-04-01T12:44:39;12.50;99.90
13336;DHT22;6737;51.480;11.962;2023-04-01T12:55:41;12.30;99.90
13336;DHT22;6737;51.480;11.962;2023-04-01T13:12:24;12.30;99.90
13336;DHT22;6737;51.480;11.962;2023-04-01T13:21:04;12.10;99.90
13336;DHT22;6737;51.480;11.962;2023-04-01T13:24:04;12.00;99.90
13336;DHT22;6737;51.480;11.962;2023-04-01T13:29:14;11.70;99.90
13336;DHT22;6737;51.480;11.962;2023-04-01T13:45:24;11.30;99.90
13336;DHT22;6737;51.480;11.962;2023-04-01T14:01:55;11.40;99.90
13336;DHT22;6737;51.480;11.962;2023-04-01T14:13:09;11.40;99.90
13336;DHT22;6737;51.480;11.962;2023-04-01T14:24:03;11.40;99.90
13336;DHT22;6737;51.480;11.962;2023-04-01T14:29:44;11.50;99.90
13336;DHT22;6737;51.480;11.962;2023-04-01T14:48:36;11.40;99.90
13336;DHT22;6737;51.480;11.962;2023-04-01T14:51:10;11.40;99.90
13336;DHT22;6737;51.480;11.962;2023-04-01T14:54:37;11.40;99.90
13336;DHT22;6737;51.480;11.962;2023-04-01T14:56:48;11.40;99.90
13336;DHT22;6737;51.480;11.962;2023-04-01T15:18:10;11.40;99.90
13336;DHT22;6737;51.480;11.962;2023-04-01T15:23:34;11.40;99.90
13336;DHT22;6737;51.480;11.962;2023-04-01T15:28:44;11.50;99.90
13336;DHT22;6737;51.480;11.962;2023-04-01T15:31:26;11.40;99.90
13336;DHT22;6737;51.480;11.962;2023-04-01T15:34:08;11.40;99.90
13336;DHT22;6737;51.480;11.962;2023-04-01T15:50:00;11.30;99.90
13336;DHT22;6737;51.480;11.962;2023-04-01T15:52:49;11.30;99.90
13336;DHT22;6737;51.480;11.962;2023-04-01T16:00:31;11.20;99.90
13336;DHT22;6737;51.480;11.962;2023-04-01T16:08:49;11.10;99.90
13336;DHT22;6737;51.480;11.962;2023-04-01T16:11:37;11.00;99.90
13336;DHT22;6737;51.480;11.962;2023-04-01T16:18:21;11.00;99.90
13336;DHT22;6737;51.480;11.962;2023-04-01T16:20:19;11.00;99.90
13336;DHT22;6737;51.480;11.962;2023-04-01T16:23:04;10.90;99.90
13336;DHT22;6737;51.480;11.962;2023-04-01T16:25:49;10.90;99.90
13336;DHT22;6737;51.480;11.962;2023-04-01T16:28:31;10.80;99.90
13336;DHT22;6737;51.480;11.962;2023-04-01T16:31:00;10.80;99.90
13336;DHT22;6737;51.480;11.962;2023-04-01T16:39:15;10.80;99.90
13336;DHT22;6737;51.480;11.962;2023-04-01T16:48:01;10.70;99.90
13336;DHT22;6737;51.480;11.962;2023-04-01T16:58:36;10.50;99.90
13336;DHT22;6737;51.480;11.962;2023-04-01T17:01:17;10.50;99.90
13336;DHT22;6737;51.480;11.962;2023-04-01T17:03:57;10.50;99.90
13336;DHT22;6737;51.480;11.962;2023-04-01T17:11:39;10.40;99.90
13336;DHT22;6737;51.480;11.962;2023-04-01T17:14:36;10.30;99.90
13336;DHT22;6737;51.480;11.962;2023-04-01T17:17:14;10.40;99.90
13336;DHT22;6737;51.480;11.962;2023-04-01T17:22:44;10.40;99.90
13336;DHT22;6737;51.480;11.962;2023-04-01T17:28:30;10.40;99.90
13336;DHT22;6737;51.480;11.962;2023-04-01T17:33:36;10.40;99.90
13336;DHT22;6737;51.480;11.962;2023-04-01T17:52:27;10.30;99.90
13336;DHT22;6737;51.480;11.962;2023-04-01T17:58:20;10.30;99.90
13336;DHT22;6737;51.480;11.962;2023-04-01T18:17:02;10.50;99.90
13336;DHT22;6737;51.480;11.962;2023-04-01T18:25:32;10.40;99.90
13336;DHT22;6737;51.480;11.962;2023-04-01T18:39:22;10.10;99.90
13336;DHT22;6737;51.480;11.962;2023-04-01T18:47:50;9.80;99.90
13336;DHT22;6737;51.480;11.962;2023-04-01T18:53:27;9.80;99.90
13336;DHT22;6737;51.480;11.962;2023-04-01T18:56:03;9.70;99.90
13336;DHT22;6737;51.480;11.962;2023-04-01T18:58:53;9.70;99.90
13336;DHT22;6737;51.480;11.962;2023-04-01T19:01:55;9.70;99.90
13336;DHT22;6737;51.480;11.962;2023-04-01T19:04:33;9.60;99.90
13336;DHT22;6737;51.480;11.962;2023-04-01T19:09:50;9.50;99.90
13336;DHT22;6737;51.480;11.962;2023-04-01T19:17:45;9.40;99.90
13336;DHT22;6737;51.480;11.962;2023-04-01T19:20:34;9.40;99.90
13336;DHT22;6737;51.480;11.962;2023-04-01T19:26:04;9.30;99.90
13336;DHT22;6737;51.480;11.962;2023-04-01T19:34:42;9.30;99.90
13336;DHT22;6737;51.480;11.962;2023-04-01T19:40:01;9.20;99.90
13336;DHT22;6737;51.480;11.962;2023-04-01T19:45:43;9.20;99.90
13336;DHT22;6737;51.480;11.962;2023-04-01T19:56:16;9.00;99.90
13336;DHT22;6737;51.480;11.962;2023-04-01T20:01:30;9.00;99.90
13336;DHT22;6737;51.480;11.962;2023-04-01T20:04:04;8.90;99.90
13336;DHT22;6737;51.480;11.962;2023-04-01T20:06:38;9.00;99.90
13336;DHT22;6737;51.480;11.962;2023-04-01T20:12:07;8.90;99.90
13336;DHT22;6737;51.480;11.962;2023-04-01T20:17:19;8.60;99.90
13336;DHT22;6737;51.480;11.962;2023-04-01T20:19:52;8.70;99.90
13336;DHT22;6737;51.480;11.962;2023-04-01T20:22:53;8.60;99.90
13336;DHT22;6737;51.480;11.962;2023-04-01T20:25:30;8.70;99.90
13336;DHT22;6737;51.480;11.962;2023-04-01T20:28:28;8.60;99.90
13336;DHT22;6737;51.480;11.962;2023-04-01T20:33:53;8.50;99.90
13336;DHT22;6737;51.480;11.962;2023-04-01T20:36:39;8.50;99.90
13336;DHT22;6737;51.480;11.962;2023-04-01T20:44:31;8.40;99.90
13336;DHT22;6737;51.480;11.962;2023-04-01T21:06:27;8.00;99.90
13336;DHT22;6737;51.480;11.962;2023-04-01T21:22:40;7.80;99.90
13336;DHT22;6737;51.480;11.962;2023-04-01T21:33:37;7.80;99.90
13336;DHT22;6737;51.480;11.962;2023-04-01T21:36:27;7.70;99.90
13336;DHT22;6737;51.480;11.962;2023-04-01T21:42:26;7.60;99.90
13336;DHT22;6737;51.480;11.962;2023-04-01T21:45:06;7.60;99.90
13336;DHT22;6737;51.480;11.962;2023-04-01T21:47:51;7.30;99.90
13336;DHT22;6737;51.480;11.962;2023-04-01T21:50:43;7.20;99.90
13336;DHT22;6737;51.480;11.962;2023-04-01T22:04:48;7.00;99.90
13336;DHT22;6737;51.480;11.962;2023-04-01T22:07:31;7.00;99.90
13336;DHT22;6737;51.480;11.962;2023-04-01T22:15:54;6.70;99.90
13336;DHT22;6737;51.480;11.962;2023-04-01T22:18:30;6.70;99.90
13336;DHT22;6737;51.480;11.962;2023-04-01T22:23:42;6.70;99.90
13336;DHT22;6737;51.480;11.962;2023-04-01T22:26:33;6.60;99.90
13336;DHT22;6737;51.480;11.962;2023-04-01T22:32:03;6.50;99.90
13336;DHT22;6737;51.480;11.962;2023-04-01T22:34:44;6.60;99.90
13336;DHT22;6737;51.480;11.962;2023-04-01T22:40:25;6.50;99.90
13336;DHT22;6737;51.480;11.962;2023-04-01T22:43:01;6.40;99.90
13336;DHT22;6737;51.480;11.962;2023-04-01T22:48:23;6.50;99.90
13336;DHT22;6737;51.480;11.962;2023-04-01T22:56:21;6.30;99.90
13336;DHT22;6737;51.480;11.962;2023-04-01T23:01:57;6.40;99.90
13336;DHT22;6737;51.480;11.962;2023-04-01T23:04:31;6.40;99.90
13336;DHT22;6737;51.480;11.962;2023-04-01T23:07:02;6.20;99.90
13336;DHT22;6737;51.480;11.962;2023-04-01T23:09:34;6.10;99.90
13336;DHT22;6737;51.480;11.962;2023-04-01T23:12:08;6.20;99.90
13336;DHT22;6737;51.480;11.962;2023-04-01T23:23:11;6.10;99.90
13336;DHT22;6737;51.480;11.962;2023-04-01T23:33:31;6.10;99.90
13336;DHT22;6737;51.480;11.962;2023-04-01T23:36:13;5.90;99.90
13336;DHT22;6737;51.480;11.962;2023-04-01T23:38:42;5.90;99.90
13336;DHT22;6737;51.480;11.962;2023-04-01T23:41:26;5.80;99.90
13336;DHT22;6737;51.480;11.962;2023-04-01T23:44:03;5.80;99.90
13336;DHT22;6737;51.480;11.962;2023-04-01T23:46:30;5.70;99.90
13336;DHT22;6737;51.480;11.962;2023-04-01T23:48:58;5.70;99.90
13336;DHT22;6737;51.480;11.962;2023-04-01T23:51:29;5.70;99.90
13336;DHT22;6737;51.480;11.962;2023-04-01T23:56:51;5.70;99.90
13336;DHT22;6737;51.480;11.962;2023-04-01T23:59:19;5.80;99.90
